Beaconsfield, Iowa
Current Conditions -  °F | °C
As of 11:53 PM on Wednesday 22 Oct 2014 (Local Time) from KLWD Reporting Station
Clear Clear  
Wind Chill: 55°   Ceiling: Unl
Heat Index: 55°   Visibility: 10mi
Dew Point: 44°   Wind: 12mph
Humidity: 67%   Direction: 150°SSE
Pressure: 30.11"   Gusts: NA
Location:  40.8146°N, 94.0684°W
Report Text: KLWD 230453Z AUTO 15010KT 10SM CLR 13/07 A3011 RMK AO2 SLP195 T01280067
Loading
Personal Weather Stations






























Interactive Weather Map
Tropical Storm Tracking
New forecast layout! Learn more

10-Day Weather Forecast

Advertisements
Track Severe Weather on mobile